createdAt,value
2019-02-22T00:00:17.000Z,41.916
2019-02-22T00:10:17.000Z,41.812
2019-02-22T00:20:17.000Z,41.97
2019-02-22T00:30:17.000Z,41.922
2019-02-22T00:40:17.000Z,41.953
2019-02-22T00:50:17.000Z,41.97
2019-02-22T01:00:18.000Z,41.955
2019-02-22T01:10:17.000Z,41.929
2019-02-22T01:20:17.000Z,41.915
2019-02-22T01:30:17.000Z,42.009
2019-02-22T01:40:17.000Z,41.952
2019-02-22T01:50:17.000Z,42.01
2019-02-22T02:00:17.000Z,42.02
2019-02-22T02:10:17.000Z,42.003
2019-02-22T02:20:17.000Z,41.913
2019-02-22T02:30:17.000Z,41.954
2019-02-22T02:40:17.000Z,41.916
2019-02-22T02:50:17.000Z,41.946
2019-02-22T03:10:17.000Z,41.906
2019-02-22T03:20:17.000Z,41.935
2019-02-22T03:30:17.000Z,41.846
2019-02-22T03:40:17.000Z,41.851
2019-02-22T03:50:17.000Z,41.773
2019-02-22T04:00:17.000Z,41.953
2019-02-22T04:10:17.000Z,41.722
2019-02-22T04:20:17.000Z,41.783
2019-02-22T04:30:17.000Z,41.759
2019-02-22T04:40:17.000Z,42.083
2019-02-22T04:50:17.000Z,42.002
2019-02-22T05:00:17.000Z,41.857
2019-02-22T05:10:17.000Z,41.726
2019-02-22T05:20:18.000Z,41.712
2019-02-22T05:30:18.000Z,41.624
2019-02-22T05:40:18.000Z,41.655
2019-02-22T05:50:19.000Z,41.578
2019-02-22T06:00:18.000Z,41.5
2019-02-22T06:10:18.000Z,41.543
2019-02-22T06:20:18.000Z,41.37
2019-02-22T06:30:18.000Z,41.357
2019-02-22T06:40:18.000Z,41.291
2019-02-22T06:50:18.000Z,41.313
2019-02-22T07:00:18.000Z,41.161
2019-02-22T07:10:18.000Z,40.977
2019-02-22T07:20:18.000Z,40.935
2019-02-22T07:30:18.000Z,40.804
2019-02-22T07:40:18.000Z,40.666
2019-02-22T07:50:18.000Z,40.74
2019-02-22T08:00:18.000Z,40.604
2019-02-22T08:10:18.000Z,40.483
2019-02-22T08:20:18.000Z,40.246
2019-02-22T08:30:18.000Z,40.135
2019-02-22T08:40:18.000Z,40.058
2019-02-22T08:50:18.000Z,40.046
2019-02-22T09:00:18.000Z,39.906
2019-02-22T09:10:18.000Z,39.755
2019-02-22T09:20:18.000Z,39.637
2019-02-22T09:30:18.000Z,39.463
2019-02-22T09:40:18.000Z,39.398
2019-02-22T09:50:18.000Z,39.291
2019-02-22T10:00:18.000Z,39.149
2019-02-22T10:10:18.000Z,39.137
2019-02-22T10:20:18.000Z,38.901
2019-02-22T10:30:18.000Z,38.814
2019-02-22T10:40:18.000Z,38.631
2019-02-22T10:50:18.000Z,38.589
2019-02-22T11:00:18.000Z,38.364
2019-02-22T11:10:18.000Z,38.353
2019-02-22T11:20:18.000Z,38.192
2019-02-22T11:30:18.000Z,38
2019-02-22T11:40:18.000Z,37.946
2019-02-22T11:50:19.000Z,37.784
2019-02-22T12:00:18.000Z,37.676
2019-02-22T12:10:18.000Z,37.644
2019-02-22T12:20:18.000Z,37.557
2019-02-22T12:30:18.000Z,37.492
2019-02-22T12:40:18.000Z,37.426
2019-02-22T12:50:22.000Z,37.405
2019-02-22T13:00:18.000Z,37.373
2019-02-22T13:10:18.000Z,37.252
2019-02-22T13:20:18.000Z,37.285
2019-02-22T13:30:19.000Z,37.219
2019-02-22T13:40:19.000Z,37.121
2019-02-22T14:00:19.000Z,37
2019-02-22T14:10:19.000Z,37.168
2019-02-22T14:20:19.000Z,37.202
2019-02-22T14:30:19.000Z,37.312
2019-02-22T14:40:19.000Z,37.312
2019-02-22T14:50:19.000Z,37.29
2019-02-22T15:00:19.000Z,37.225
2019-02-22T15:10:19.000Z,37.323
2019-02-22T15:20:19.000Z,37.43
2019-02-22T15:30:19.000Z,37.332
2019-02-22T15:40:19.000Z,37.21
2019-02-22T15:50:19.000Z,37.177
2019-02-22T16:00:19.000Z,37.251
2019-02-22T16:10:19.000Z,37.164
2019-02-22T16:20:19.000Z,37.054
2019-02-22T16:30:19.000Z,37.074
2019-02-22T16:40:19.000Z,37.02
2019-02-22T16:50:19.000Z,36.986
2019-02-22T17:00:19.000Z,36.942
2019-02-22T17:10:19.000Z,36.995
2019-02-22T17:20:19.000Z,36.841
2019-02-22T17:30:19.000Z,36.874
2019-02-22T17:40:19.000Z,36.83
2019-02-22T17:50:19.000Z,36.785
2019-02-22T18:00:19.000Z,36.742
2019-02-22T18:10:19.000Z,36.729
2019-02-22T18:20:19.000Z,36.728
2019-02-22T18:30:19.000Z,36.758
2019-02-22T18:40:19.000Z,36.737
2019-02-22T18:50:20.000Z,36.671
2019-02-22T19:00:19.000Z,36.659
2019-02-22T19:10:19.000Z,36.823
2019-02-22T19:20:19.000Z,36.912
2019-02-22T19:30:19.000Z,37.034
2019-02-22T19:40:19.000Z,37.076
2019-02-22T19:50:19.000Z,37.117
2019-02-22T20:00:19.000Z,37.116
2019-02-22T20:20:19.000Z,37.102
2019-02-22T20:30:20.000Z,37.044
2019-02-22T20:40:21.000Z,37
2019-02-22T20:50:19.000Z,37.03
2019-02-22T21:00:19.000Z,37.071
2019-02-22T21:10:19.000Z,37.016
2019-02-22T21:20:21.000Z,37.088
2019-02-22T21:30:20.000Z,37.066
2019-02-22T21:40:19.000Z,37.042
2019-02-22T21:50:21.000Z,37.072
2019-02-22T22:00:20.000Z,36.985
2019-02-22T22:10:20.000Z,37.004
2019-02-22T22:20:20.000Z,36.906
2019-02-22T22:30:21.000Z,36.926
2019-02-22T22:40:21.000Z,36.847
2019-02-22T23:00:20.000Z,37.089
2019-02-22T23:10:20.000Z,37.122
2019-02-22T23:20:20.000Z,37.132
2019-02-22T23:30:21.000Z,37.109
2019-02-22T23:40:20.000Z,37.151
